sensor_id;sensor_type;location;lat;lon;timestamp;pressure;altitude;pressure_sealevel;temperature;humidity
6528;BME280;64597;42.664;23.256;2023-01-28T00:02:20;93935.53;;;1.74;67.65
6528;BME280;64597;42.664;23.256;2023-01-28T00:04:46;93903.88;;;1.50;67.92
6528;BME280;64597;42.664;23.256;2023-01-28T00:07:12;93932.72;;;1.68;67.97
6528;BME280;64597;42.664;23.256;2023-01-28T00:09:37;93938.31;;;1.72;68.23
6528;BME280;64597;42.664;23.256;2023-01-28T00:12:04;93936.91;;;1.63;68.08
6528;BME280;64597;42.664;23.256;2023-01-28T00:14:30;93950.31;;;1.73;68.11
6528;BME280;64597;42.664;23.256;2023-01-28T00:16:55;93956.31;;;1.74;68.41
6528;BME280;64597;42.664;23.256;2023-01-28T00:19:20;93958.88;;;1.67;68.22
6528;BME280;64597;42.664;23.256;2023-01-28T00:21:46;93961.50;;;1.67;68.15
6528;BME280;64597;42.664;23.256;2023-01-28T00:24:12;93957.88;;;1.68;67.85
6528;BME280;64597;42.664;23.256;2023-01-28T00:26:37;93963.28;;;1.66;68.14
6528;BME280;64597;42.664;23.256;2023-01-28T00:29:03;93960.84;;;1.58;68.59
6528;BME280;64597;42.664;23.256;2023-01-28T00:31:28;93961.47;;;1.60;68.22
6528;BME280;64597;42.664;23.256;2023-01-28T00:33:55;93973.88;;;1.65;68.16
6528;BME280;64597;42.664;23.256;2023-01-28T00:36:22;93973.88;;;1.65;68.15
6528;BME280;64597;42.664;23.256;2023-01-28T00:38:49;93974.22;;;1.55;67.92
6528;BME280;64597;42.664;23.256;2023-01-28T00:41:16;93943.78;;;1.36;67.91
6528;BME280;64597;42.664;23.256;2023-01-28T00:43:43;93985.03;;;1.59;67.99
6528;BME280;64597;42.664;23.256;2023-01-28T00:46:10;93976.25;;;1.60;68.45
6528;BME280;64597;42.664;23.256;2023-01-28T00:48:37;93985.44;;;1.62;68.57
6528;BME280;64597;42.664;23.256;2023-01-28T00:51:04;93970.06;;;1.61;68.37
6528;BME280;64597;42.664;23.256;2023-01-28T00:53:30;93983.06;;;1.61;68.50
6528;BME280;64597;42.664;23.256;2023-01-28T00:55:56;93983.47;;;1.64;67.83
6528;BME280;64597;42.664;23.256;2023-01-28T00:58:21;93982.22;;;1.54;68.29
6528;BME280;64597;42.664;23.256;2023-01-28T01:00:49;93983.81;;;1.55;67.54
6528;BME280;64597;42.664;23.256;2023-01-28T01:03:16;93985.81;;;1.53;68.29
6528;BME280;64597;42.664;23.256;2023-01-28T01:05:41;93982.22;;;1.54;68.17
6528;BME280;64597;42.664;23.256;2023-01-28T01:08:07;93979.84;;;1.59;68.38
6528;BME280;64597;42.664;23.256;2023-01-28T01:10:32;93981.03;;;1.56;68.13
6528;BME280;64597;42.664;23.256;2023-01-28T01:12:58;93972.22;;;1.51;67.79
6528;BME280;64597;42.664;23.256;2023-01-28T01:15:24;93979.41;;;1.55;67.83
6528;BME280;64597;42.664;23.256;2023-01-28T01:17:50;93989.78;;;1.55;67.89
6528;BME280;64597;42.664;23.256;2023-01-28T01:20:19;93959.34;;;1.30;68.07
6528;BME280;64597;42.664;23.256;2023-01-28T01:22:45;93990.41;;;1.51;68.25
6528;BME280;64597;42.664;23.256;2023-01-28T01:25:15;93952.56;;;1.29;67.93
6528;BME280;64597;42.664;23.256;2023-01-28T01:27:42;93989.41;;;1.52;68.33
6528;BME280;64597;42.664;23.256;2023-01-28T01:30:11;93986.59;;;1.53;68.22
6528;BME280;64597;42.664;23.256;2023-01-28T01:32:37;93993.97;;;1.50;68.29
6528;BME280;64597;42.664;23.256;2023-01-28T01:35:04;93987.72;;;1.38;68.36
6528;BME280;64597;42.664;23.256;2023-01-28T01:37:33;93980.34;;;1.35;68.72
6528;BME280;64597;42.664;23.256;2023-01-28T01:40:00;93994.59;;;1.52;68.73
6528;BME280;64597;42.664;23.256;2023-01-28T01:42:27;93986.59;;;1.53;68.33
6528;BME280;64597;42.664;23.256;2023-01-28T01:44:57;93998.19;;;1.51;68.74
6528;BME280;64597;42.664;23.256;2023-01-28T01:47:32;93997.19;;;1.52;68.51
6528;BME280;64597;42.664;23.256;2023-01-28T01:50:03;93983.38;;;1.45;68.44
6528;BME280;64597;42.664;23.256;2023-01-28T01:52:34;93994.22;;;1.55;68.36
6528;BME280;64597;42.664;23.256;2023-01-28T01:55:03;94000.03;;;1.57;68.38
6528;BME280;64597;42.664;23.256;2023-01-28T01:57:32;94003.03;;;1.60;68.24
6528;BME280;64597;42.664;23.256;2023-01-28T02:00:02;94004.19;;;1.58;68.27
6528;BME280;64597;42.664;23.256;2023-01-28T02:02:35;94007.19;;;1.55;68.35
6528;BME280;64597;42.664;23.256;2023-01-28T02:05:02;93996.97;;;1.53;67.83
6528;BME280;64597;42.664;23.256;2023-01-28T02:07:28;93999.19;;;1.50;68.16
6528;BME280;64597;42.664;23.256;2023-01-28T02:09:53;93999.78;;;1.52;68.16
6528;BME280;64597;42.664;23.256;2023-01-28T02:12:27;94000.97;;;1.49;68.15
6528;BME280;64597;42.664;23.256;2023-01-28T02:17:26;94006.16;;;1.43;68.42
6528;BME280;64597;42.664;23.256;2023-01-28T02:19:58;94005.94;;;1.44;68.43
6528;BME280;64597;42.664;23.256;2023-01-28T02:26:09;94003.97;;;1.46;67.88
6528;BME280;64597;42.664;23.256;2023-01-28T02:31:16;94008.31;;;1.39;68.11
6528;BME280;64597;42.664;23.256;2023-01-28T02:33:58;94010.34;;;1.44;68.15
6528;BME280;64597;42.664;23.256;2023-01-28T02:36:39;94007.53;;;1.45;68.26
6528;BME280;64597;42.664;23.256;2023-01-28T02:39:10;94012.56;;;1.47;67.76
6528;BME280;64597;42.664;23.256;2023-01-28T02:41:46;94006.94;;;1.43;68.25
6528;BME280;64597;42.664;23.256;2023-01-28T02:44:13;94008.50;;;1.38;68.38
6528;BME280;64597;42.664;23.256;2023-01-28T02:46:38;94002.69;;;1.36;68.13
6528;BME280;64597;42.664;23.256;2023-01-28T02:57:59;94011.56;;;1.48;68.64
6528;BME280;64597;42.664;23.256;2023-01-28T03:00:32;94019.75;;;1.51;68.29
6528;BME280;64597;42.664;23.256;2023-01-28T03:06:01;94021.66;;;1.30;68.79
6528;BME280;64597;42.664;23.256;2023-01-28T03:11:18;94015.75;;;1.15;69.10
6528;BME280;64597;42.664;23.256;2023-01-28T03:14:02;94021.22;;;1.26;68.77
6528;BME280;64597;42.664;23.256;2023-01-28T03:16:47;94020.44;;;1.26;68.51
6528;BME280;64597;42.664;23.256;2023-01-28T03:19:32;94021.00;;;1.21;68.54
6528;BME280;64597;42.664;23.256;2023-01-28T03:22:16;94025.63;;;1.26;68.63
6528;BME280;64597;42.664;23.256;2023-01-28T03:25:01;94027.22;;;1.27;68.53
6528;BME280;64597;42.664;23.256;2023-01-28T03:27:51;94041.19;;;1.26;68.62
6528;BME280;64597;42.664;23.256;2023-01-28T03:31:09;94032.19;;;1.22;68.34
6528;BME280;64597;42.664;23.256;2023-01-28T03:33:57;94014.53;;;1.11;68.50
6528;BME280;64597;42.664;23.256;2023-01-28T03:36:42;94022.41;;;1.24;68.42
6528;BME280;64597;42.664;23.256;2023-01-28T03:39:22;94025.97;;;1.23;68.50
6528;BME280;64597;42.664;23.256;2023-01-28T03:42:14;94032.78;;;1.24;68.45
6528;BME280;64597;42.664;23.256;2023-01-28T03:44:40;93922.78;;;0.56;68.49
6528;BME280;64597;42.664;23.256;2023-01-28T03:47:23;94034.81;;;1.28;68.12
6528;BME280;64597;42.664;23.256;2023-01-28T03:49:51;94025.63;;;1.26;67.93
6528;BME280;64597;42.664;23.256;2023-01-28T03:52:20;94040.34;;;1.19;68.21
6528;BME280;64597;42.664;23.256;2023-01-28T03:54:46;94044.28;;;1.08;68.38
6528;BME280;64597;42.664;23.256;2023-01-28T03:57:16;94041.28;;;1.11;68.26
6528;BME280;64597;42.664;23.256;2023-01-28T03:59:43;94044.13;;;1.16;68.09
6528;BME280;64597;42.664;23.256;2023-01-28T04:02:10;94046.63;;;1.03;67.70
6528;BME280;64597;42.664;23.256;2023-01-28T04:04:38;94045.66;;;1.04;67.64
6528;BME280;64597;42.664;23.256;2023-01-28T04:07:05;94049.03;;;1.05;68.05
6528;BME280;64597;42.664;23.256;2023-01-28T04:09:33;94049.88;;;1.12;67.78
6528;BME280;64597;42.664;23.256;2023-01-28T04:11:59;94049.13;;;1.18;67.94
6528;BME280;64597;42.664;23.256;2023-01-28T04:14:25;94058.28;;;1.14;67.78
6528;BME280;64597;42.664;23.256;2023-01-28T04:16:50;94052.69;;;1.10;68.02
6528;BME280;64597;42.664;23.256;2023-01-28T04:19:19;94064.44;;;1.06;68.32
6528;BME280;64597;42.664;23.256;2023-01-28T04:21:45;94059.03;;;1.08;68.26
6528;BME280;64597;42.664;23.256;2023-01-28T04:24:13;94058.66;;;1.11;68.43
6528;BME280;64597;42.664;23.256;2023-01-28T04:26:39;94046.22;;;1.00;68.40
6528;BME280;64597;42.664;23.256;2023-01-28T04:29:04;94063.22;;;1.09;68.36
6528;BME280;64597;42.664;23.256;2023-01-28T04:31:30;94063.44;;;1.07;68.24
6528;BME280;64597;42.664;23.256;2023-01-28T04:33:56;94061.44;;;1.09;68.78
6528;BME280;64597;42.664;23.256;2023-01-28T04:36:22;94069.47;;;1.14;68.58
6528;BME280;64597;42.664;23.256;2023-01-28T04:38:47;94072.38;;;1.05;68.55
6528;BME280;64597;42.664;23.256;2023-01-28T04:41:13;94069.44;;;1.08;68.75
6528;BME280;64597;42.664;23.256;2023-01-28T04:43:38;94085.97;;;1.07;68.95
6528;BME280;64597;42.664;23.256;2023-01-28T04:46:04;94072.16;;;1.00;68.66
6528;BME280;64597;42.664;23.256;2023-01-28T04:48:30;94089.38;;;1.07;68.59
6528;BME280;64597;42.664;23.256;2023-01-28T04:50:56;94061.66;;;0.87;68.51
6528;BME280;64597;42.664;23.256;2023-01-28T04:53:22;94089.03;;;1.10;68.80
6528;BME280;64597;42.664;23.256;2023-01-28T04:55:47;94085.00;;;1.08;68.69
6528;BME280;64597;42.664;23.256;2023-01-28T04:58:13;94099.75;;;1.07;68.71
6528;BME280;64597;42.664;23.256;2023-01-28T05:00:39;94096.56;;;1.05;68.60
6528;BME280;64597;42.664;23.256;2023-01-28T05:03:04;94098.19;;;1.06;68.83
6528;BME280;64597;42.664;23.256;2023-01-28T05:05:30;94093.75;;;1.07;68.77
6528;BME280;64597;42.664;23.256;2023-01-28T05:07:56;94104.97;;;1.07;68.65
6528;BME280;64597;42.664;23.256;2023-01-28T05:10:23;94105.75;;;1.08;68.68
6528;BME280;64597;42.664;23.256;2023-01-28T05:12:49;94105.22;;;1.12;68.68
6528;BME280;64597;42.664;23.256;2023-01-28T05:15:15;94094.16;;;1.04;68.60
6528;BME280;64597;42.664;23.256;2023-01-28T05:17:42;94107.97;;;1.11;68.05
6528;BME280;64597;42.664;23.256;2023-01-28T05:20:09;94113.97;;;1.11;68.22
6528;BME280;64597;42.664;23.256;2023-01-28T05:22:35;94110.09;;;1.01;68.45
6528;BME280;64597;42.664;23.256;2023-01-28T05:25:01;94118.75;;;1.08;67.94
6528;BME280;64597;42.664;23.256;2023-01-28T05:27:28;94112.31;;;1.04;68.54
6528;BME280;64597;42.664;23.256;2023-01-28T05:29:54;94116.16;;;1.08;68.42
6528;BME280;64597;42.664;23.256;2023-01-28T05:32:20;94120.59;;;1.14;68.82
6528;BME280;64597;42.664;23.256;2023-01-28T05:34:46;94108.34;;;1.08;68.67
6528;BME280;64597;42.664;23.256;2023-01-28T05:37:11;94122.63;;;1.18;68.28
6528;BME280;64597;42.664;23.256;2023-01-28T05:39:37;94117.75;;;1.09;67.39
6528;BME280;64597;42.664;23.256;2023-01-28T05:42:02;94133.22;;;0.96;67.88
6528;BME280;64597;42.664;23.256;2023-01-28T05:44:28;94127.16;;;0.89;67.74
6528;BME280;64597;42.664;23.256;2023-01-28T05:46:53;94139.88;;;1.05;67.91
6528;BME280;64597;42.664;23.256;2023-01-28T05:49:19;94142.84;;;1.02;67.72
6528;BME280;64597;42.664;23.256;2023-01-28T05:51:44;94141.22;;;1.01;68.26
6528;BME280;64597;42.664;23.256;2023-01-28T05:54:33;94128.25;;;1.01;67.79
6528;BME280;64597;42.664;23.256;2023-01-28T05:57:25;94137.84;;;1.00;67.77
6528;BME280;64597;42.664;23.256;2023-01-28T06:00:31;94137.66;;;1.02;68.20
6528;BME280;64597;42.664;23.256;2023-01-28T06:03:17;94137.66;;;1.02;68.11
6528;BME280;64597;42.664;23.256;2023-01-28T06:05:45;94152.41;;;1.01;67.98
6528;BME280;64597;42.664;23.256;2023-01-28T06:08:11;94148.84;;;1.02;68.05
6528;BME280;64597;42.664;23.256;2023-01-28T06:10:37;94153.59;;;0.99;67.98
6528;BME280;64597;42.664;23.256;2023-01-28T06:13:02;94132.28;;;0.82;67.97
6528;BME280;64597;42.664;23.256;2023-01-28T06:15:28;94160.41;;;1.00;68.13
6528;BME280;64597;42.664;23.256;2023-01-28T06:17:53;94167.19;;;1.01;68.33
6528;BME280;64597;42.664;23.256;2023-01-28T06:20:19;94170.38;;;1.03;68.10
6528;BME280;64597;42.664;23.256;2023-01-28T06:22:44;94123.97;;;0.65;68.17
6528;BME280;64597;42.664;23.256;2023-01-28T06:25:09;94168.19;;;1.00;68.43
6528;BME280;64597;42.664;23.256;2023-01-28T06:27:35;94183.00;;;1.06;68.52
6528;BME280;64597;42.664;23.256;2023-01-28T06:30:00;94179.41;;;1.07;68.06
6528;BME280;64597;42.664;23.256;2023-01-28T06:32:26;94177.63;;;1.07;68.29
6528;BME280;64597;42.664;23.256;2023-01-28T06:34:51;94183.63;;;1.08;68.48
6528;BME280;64597;42.664;23.256;2023-01-28T06:37:17;94169.53;;;0.96;67.70
6528;BME280;64597;42.664;23.256;2023-01-28T06:39:42;94122.81;;;0.53;67.86
6528;BME280;64597;42.664;23.256;2023-01-28T06:42:08;94196.97;;;1.05;68.22
6528;BME280;64597;42.664;23.256;2023-01-28T06:44:33;94172.44;;;0.86;68.26
6528;BME280;64597;42.664;23.256;2023-01-28T06:46:59;94193.50;;;0.98;68.42
6528;BME280;64597;42.664;23.256;2023-01-28T06:49:24;94216.06;;;1.18;67.98
6528;BME280;64597;42.664;23.256;2023-01-28T06:51:50;94210.88;;;1.18;67.98
6528;BME280;64597;42.664;23.256;2023-01-28T06:54:21;94187.59;;;1.04;68.20
6528;BME280;64597;42.664;23.256;2023-01-28T06:56:46;94222.44;;;1.16;68.16
6528;BME280;64597;42.664;23.256;2023-01-28T06:59:12;94222.03;;;1.19;68.08
6528;BME280;64597;42.664;23.256;2023-01-28T07:01:39;94224.03;;;1.17;67.86
6528;BME280;64597;42.664;23.256;2023-01-28T07:04:04;94206.72;;;1.03;68.27
6528;BME280;64597;42.664;23.256;2023-01-28T07:06:30;94226.88;;;1.22;68.66
6528;BME280;64597;42.664;23.256;2023-01-28T07:08:55;94144.59;;;0.73;68.57
6528;BME280;64597;42.664;23.256;2023-01-28T07:11:21;94218.28;;;1.21;68.52
6528;BME280;64597;42.664;23.256;2023-01-28T07:13:47;94237.94;;;1.30;68.31
6528;BME280;64597;42.664;23.256;2023-01-28T07:16:12;94241.28;;;1.24;68.14
6528;BME280;64597;42.664;23.256;2023-01-28T07:18:38;94245.88;;;1.22;68.09
6528;BME280;64597;42.664;23.256;2023-01-28T07:21:03;94256.41;;;1.21;67.69
6528;BME280;64597;42.664;23.256;2023-01-28T07:23:29;94256.41;;;1.21;67.84
6528;BME280;64597;42.664;23.256;2023-01-28T07:25:59;94255.19;;;1.17;67.77
6528;BME280;64597;42.664;23.256;2023-01-28T07:28:24;94258.78;;;1.16;67.94
6528;BME280;64597;42.664;23.256;2023-01-28T07:30:50;94235.53;;;1.08;68.29
6528;BME280;64597;42.664;23.256;2023-01-28T07:33:16;94260.38;;;1.17;68.39
6528;BME280;64597;42.664;23.256;2023-01-28T07:35:42;94252.34;;;1.12;68.60
6528;BME280;64597;42.664;23.256;2023-01-28T07:38:21;94263.22;;;1.22;68.31
6528;BME280;64597;42.664;23.256;2023-01-28T07:41:16;94256.59;;;1.19;68.43
6528;BME280;64597;42.664;23.256;2023-01-28T07:44:17;94269.03;;;1.24;68.38
6528;BME280;64597;42.664;23.256;2023-01-28T07:46:54;94241.09;;;1.05;67.92
6528;BME280;64597;42.664;23.256;2023-01-28T07:49:33;94281.22;;;1.02;68.11
6528;BME280;64597;42.664;23.256;2023-01-28T07:52:10;94262.34;;;1.15;67.48
6528;BME280;64597;42.664;23.256;2023-01-28T07:55:08;94271.22;;;1.20;68.03
6528;BME280;64597;42.664;23.256;2023-01-28T07:57:33;94271.75;;;1.16;67.97
6528;BME280;64597;42.664;23.256;2023-01-28T07:59:58;94282.63;;;1.26;68.13
6528;BME280;64597;42.664;23.256;2023-01-28T08:02:24;94281.63;;;1.27;68.37
6528;BME280;64597;42.664;23.256;2023-01-28T08:04:49;94278.69;;;1.30;68.46
6528;BME280;64597;42.664;23.256;2023-01-28T08:07:15;94284.16;;;1.35;68.39
6528;BME280;64597;42.664;23.256;2023-01-28T08:09:43;94259.94;;;1.13;68.17
6528;BME280;64597;42.664;23.256;2023-01-28T08:12:30;94292.16;;;1.40;68.52
6528;BME280;64597;42.664;23.256;2023-01-28T08:15:01;94297.34;;;1.40;67.62
6528;BME280;64597;42.664;23.256;2023-01-28T08:17:26;94293.34;;;3.23;90.03
6528;BME280;64597;42.664;23.256;2023-01-28T08:19:52;94282.03;;;7.98;93.08
6528;BME280;64597;42.664;23.256;2023-01-28T08:22:18;94275.47;;;9.96;93.46
6528;BME280;64597;42.664;23.256;2023-01-28T08:24:48;94266.50;;;11.56;86.93
6528;BME280;64597;42.664;23.256;2023-01-28T08:27:14;94250.75;;;12.88;68.14
6528;BME280;64597;42.664;23.256;2023-01-28T08:29:39;94234.44;;;13.68;53.40
6528;BME280;64597;42.664;23.256;2023-01-28T08:32:05;94256.84;;;14.73;48.40
6528;BME280;64597;42.664;23.256;2023-01-28T08:34:30;94245.91;;;14.09;46.61
6528;BME280;64597;42.664;23.256;2023-01-28T08:36:55;94252.25;;;12.37;38.53
6528;BME280;64597;42.664;23.256;2023-01-28T08:39:21;94247.13;;;10.86;41.04
6528;BME280;64597;42.664;23.256;2023-01-28T08:41:46;94260.81;;;10.00;42.30
6528;BME280;64597;42.664;23.256;2023-01-28T08:44:11;94267.09;;;9.14;43.56
6528;BME280;64597;42.664;23.256;2023-01-28T08:46:37;94261.34;;;8.32;45.41
6528;BME280;64597;42.664;23.256;2023-01-28T08:49:02;94285.25;;;7.71;46.61
6528;BME280;64597;42.664;23.256;2023-01-28T08:51:28;94306.47;;;6.85;47.76
6528;BME280;64597;42.664;23.256;2023-01-28T08:53:54;94282.44;;;6.52;48.80
6528;BME280;64597;42.664;23.256;2023-01-28T08:56:19;94284.09;;;6.22;50.41
6528;BME280;64597;42.664;23.256;2023-01-28T08:58:45;94286.41;;;5.87;51.39
6528;BME280;64597;42.664;23.256;2023-01-28T09:01:10;94293.75;;;5.65;52.26
6528;BME280;64597;42.664;23.256;2023-01-28T09:03:36;94283.88;;;5.36;53.31
6528;BME280;64597;42.664;23.256;2023-01-28T09:06:03;94288.34;;;5.23;54.03
6528;BME280;64597;42.664;23.256;2023-01-28T09:08:28;94295.28;;;5.04;55.00
6528;BME280;64597;42.664;23.256;2023-01-28T09:10:55;94300.97;;;4.88;55.52
6528;BME280;64597;42.664;23.256;2023-01-28T09:13:21;94297.59;;;4.61;55.45
6528;BME280;64597;42.664;23.256;2023-01-28T09:15:46;94303.66;;;4.49;56.22
6528;BME280;64597;42.664;23.256;2023-01-28T09:18:12;94299.84;;;4.32;56.97
6528;BME280;64597;42.664;23.256;2023-01-28T09:20:38;94309.72;;;4.16;56.80
6528;BME280;64597;42.664;23.256;2023-01-28T09:23:03;94300.84;;;3.78;57.55
6528;BME280;64597;42.664;23.256;2023-01-28T09:25:29;94291.00;;;3.54;58.37
6528;BME280;64597;42.664;23.256;2023-01-28T09:27:54;94309.25;;;3.54;59.48
6528;BME280;64597;42.664;23.256;2023-01-28T09:30:20;94299.59;;;3.35;59.50
6528;BME280;64597;42.664;23.256;2023-01-28T09:32:49;94305.56;;;3.22;59.35
6528;BME280;64597;42.664;23.256;2023-01-28T09:35:16;94294.31;;;3.15;60.21
6528;BME280;64597;42.664;23.256;2023-01-28T09:37:42;94283.63;;;2.97;60.35
6528;BME280;64597;42.664;23.256;2023-01-28T09:40:13;94302.28;;;3.07;60.54
6528;BME280;64597;42.664;23.256;2023-01-28T09:42:54;94306.53;;;3.15;61.48
6528;BME280;64597;42.664;23.256;2023-01-28T09:47:53;94304.88;;;3.01;62.03
6528;BME280;64597;42.664;23.256;2023-01-28T09:50:30;94301.66;;;2.99;62.00
6528;BME280;64597;42.664;23.256;2023-01-28T09:53:04;94298.88;;;3.07;62.23
6528;BME280;64597;42.664;23.256;2023-01-28T09:55:33;94298.50;;;3.10;62.23
6528;BME280;64597;42.664;23.256;2023-01-28T09:58:00;94301.13;;;3.16;62.17
6528;BME280;64597;42.664;23.256;2023-01-28T10:09:18;94306.53;;;3.15;62.93
6528;BME280;64597;42.664;23.256;2023-01-28T10:12:13;94306.94;;;3.12;63.00
6528;BME280;64597;42.664;23.256;2023-01-28T10:14:46;94296.88;;;3.09;62.71
6528;BME280;64597;42.664;23.256;2023-01-28T10:17:38;94296.69;;;3.04;62.82
6528;BME280;64597;42.664;23.256;2023-01-28T10:20:27;94300.88;;;3.05;62.90
6528;BME280;64597;42.664;23.256;2023-01-28T10:23:02;94300.69;;;3.00;63.40
6528;BME280;64597;42.664;23.256;2023-01-28T10:25:30;94297.88;;;3.01;63.56
6528;BME280;64597;42.664;23.256;2023-01-28T10:27:57;94291.66;;;2.96;63.49
6528;BME280;64597;42.664;23.256;2023-01-28T10:30:25;94298.28;;;3.05;63.47
6528;BME280;64597;42.664;23.256;2023-01-28T10:32:58;94293.22;;;2.97;63.92
6528;BME280;64597;42.664;23.256;2023-01-28T10:35:26;94286.19;;;2.91;63.35
6528;BME280;64597;42.664;23.256;2023-01-28T10:38:00;94300.69;;;3.06;63.90
6528;BME280;64597;42.664;23.256;2023-01-28T10:40:26;94298.47;;;3.03;63.47
6528;BME280;64597;42.664;23.256;2023-01-28T10:42:51;94296.09;;;3.08;64.29
6528;BME280;64597;42.664;23.256;2023-01-28T10:45:23;94293.28;;;3.10;63.41
6528;BME280;64597;42.664;23.256;2023-01-28T10:47:57;94293.06;;;3.05;63.83
6528;BME280;64597;42.664;23.256;2023-01-28T10:50:27;94298.88;;;3.00;63.35
6528;BME280;64597;42.664;23.256;2023-01-28T10:52:57;94279.78;;;2.87;64.04
6528;BME280;64597;42.664;23.256;2023-01-28T10:55:26;94290.88;;;3.02;64.09
6528;BME280;64597;42.664;23.256;2023-01-28T10:57:53;94294.88;;;3.04;64.13
6528;BME280;64597;42.664;23.256;2023-01-28T11:02:47;94293.66;;;3.07;63.61
6528;BME280;64597;42.664;23.256;2023-01-28T11:05:24;94289.06;;;3.09;64.29
6528;BME280;64597;42.664;23.256;2023-01-28T11:08:15;94289.31;;;3.14;63.92
6528;BME280;64597;42.664;23.256;2023-01-28T11:10:42;94288.28;;;3.15;62.90
6528;BME280;64597;42.664;23.256;2023-01-28T11:13:34;94291.13;;;3.20;63.61
6528;BME280;64597;42.664;23.256;2023-01-28T11:16:17;94245.38;;;2.98;63.62
6528;BME280;64597;42.664;23.256;2023-01-28T11:21:18;94280.69;;;3.13;61.96
6528;BME280;64597;42.664;23.256;2023-01-28T11:26:29;94291.34;;;3.25;62.26
6528;BME280;64597;42.664;23.256;2023-01-28T11:28:57;94289.34;;;3.27;62.53
6528;BME280;64597;42.664;23.256;2023-01-28T11:31:24;94288.91;;;3.23;62.61
6528;BME280;64597;42.664;23.256;2023-01-28T11:33:56;94286.91;;;3.19;62.28
6528;BME280;64597;42.664;23.256;2023-01-28T11:36:33;94291.16;;;3.26;62.91
6528;BME280;64597;42.664;23.256;2023-01-28T11:39:02;94287.13;;;3.24;62.59
6528;BME280;64597;42.664;23.256;2023-01-28T11:41:37;94290.94;;;3.28;62.47
6528;BME280;64597;42.664;23.256;2023-01-28T11:44:12;94282.13;;;3.35;62.83
6528;BME280;64597;42.664;23.256;2023-01-28T12:03:35;94277.16;;;3.47;61.65
6528;BME280;64597;42.664;23.256;2023-01-28T12:20:07;94284.75;;;3.42;60.46
6528;BME280;64597;42.664;23.256;2023-01-28T12:22:58;94278.56;;;3.43;60.46
6528;BME280;64597;42.664;23.256;2023-01-28T12:25:50;94279.16;;;3.45;61.46
6528;BME280;64597;42.664;23.256;2023-01-28T12:36:38;94258.50;;;3.37;61.77
6528;BME280;64597;42.664;23.256;2023-01-28T12:42:11;94290.00;;;3.55;61.48
6528;BME280;64597;42.664;23.256;2023-01-28T12:44:44;94287.41;;;3.55;61.28
6528;BME280;64597;42.664;23.256;2023-01-28T12:47:19;94290.41;;;3.52;61.26
6528;BME280;64597;42.664;23.256;2023-01-28T12:49:54;94295.41;;;3.60;61.31
6528;BME280;64597;42.664;23.256;2023-01-28T12:52:48;94306.44;;;3.62;61.92
6528;BME280;64597;42.664;23.256;2023-01-28T12:55:34;94299.63;;;3.61;61.54
6528;BME280;64597;42.664;23.256;2023-01-28T12:58:02;94310.09;;;3.68;61.52
6528;BME280;64597;42.664;23.256;2023-01-28T13:00:35;94302.25;;;3.61;60.56
6528;BME280;64597;42.664;23.256;2023-01-28T13:05:51;94309.22;;;3.41;60.62
6528;BME280;64597;42.664;23.256;2023-01-28T13:08:23;94305.00;;;3.40;60.44
6528;BME280;64597;42.664;23.256;2023-01-28T13:10:49;94305.81;;;3.41;61.48
6528;BME280;64597;42.664;23.256;2023-01-28T13:13:35;94316.66;;;3.51;61.08
6528;BME280;64597;42.664;23.256;2023-01-28T13:16:02;94314.63;;;3.46;60.31
6528;BME280;64597;42.664;23.256;2023-01-28T13:20:58;94324.63;;;3.36;60.88
6528;BME280;64597;42.664;23.256;2023-01-28T13:25:54;94321.03;;;3.37;60.97
6528;BME280;64597;42.664;23.256;2023-01-28T13:28:29;94310.63;;;3.37;61.46
6528;BME280;64597;42.664;23.256;2023-01-28T13:31:02;94329.06;;;3.42;60.86
6528;BME280;64597;42.664;23.256;2023-01-28T13:33:34;94325.25;;;3.38;61.60
6528;BME280;64597;42.664;23.256;2023-01-28T13:39:00;94334.25;;;3.42;61.39
6528;BME280;64597;42.664;23.256;2023-01-28T13:41:37;94334.66;;;3.46;61.74
6528;BME280;64597;42.664;23.256;2023-01-28T13:44:02;94311.00;;;3.34;61.67
6528;BME280;64597;42.664;23.256;2023-01-28T13:46:29;94331.47;;;3.50;62.05
6528;BME280;64597;42.664;23.256;2023-01-28T13:48:57;94339.69;;;3.54;62.39
6528;BME280;64597;42.664;23.256;2023-01-28T13:51:30;94343.94;;;3.55;62.75
6528;BME280;64597;42.664;23.256;2023-01-28T13:59:48;94349.13;;;3.55;62.72
6528;BME280;64597;42.664;23.256;2023-01-28T14:05:37;94347.75;;;3.59;62.57
6528;BME280;64597;42.664;23.256;2023-01-28T14:11:45;94362.16;;;3.48;62.27
6528;BME280;64597;42.664;23.256;2023-01-28T14:17:02;94362.31;;;3.40;62.13
6528;BME280;64597;42.664;23.256;2023-01-28T14:19:35;94367.94;;;3.37;62.68
6528;BME280;64597;42.664;23.256;2023-01-28T14:22:08;94382.97;;;3.35;63.05
6528;BME280;64597;42.664;23.256;2023-01-28T14:24:36;94373.56;;;3.41;65.47
6528;BME280;64597;42.664;23.256;2023-01-28T14:32:33;94335.75;;;3.04;63.12
6528;BME280;64597;42.664;23.256;2023-01-28T14:35:06;94383.56;;;3.37;62.90
6528;BME280;64597;42.664;23.256;2023-01-28T14:37:32;94348.16;;;3.02;62.93
6528;BME280;64597;42.664;23.256;2023-01-28T14:40:01;94366.25;;;3.16;62.70
6528;BME280;64597;42.664;23.256;2023-01-28T14:56:29;94395.00;;;3.02;63.45
6528;BME280;64597;42.664;23.256;2023-01-28T15:01:45;94407.84;;;3.03;63.56
6528;BME280;64597;42.664;23.256;2023-01-28T15:04:23;94415.66;;;3.03;63.52
6528;BME280;64597;42.664;23.256;2023-01-28T15:06:50;94408.19;;;2.94;64.15
6528;BME280;64597;42.664;23.256;2023-01-28T15:09:15;94409.53;;;2.83;63.96
6528;BME280;64597;42.664;23.256;2023-01-28T15:11:43;94394.47;;;2.79;64.29
6528;BME280;64597;42.664;23.256;2023-01-28T15:14:30;94418.50;;;2.81;64.69
6528;BME280;64597;42.664;23.256;2023-01-28T15:17:00;94411.25;;;2.70;64.33
6528;BME280;64597;42.664;23.256;2023-01-28T15:19:32;94422.13;;;2.80;64.40
6528;BME280;64597;42.664;23.256;2023-01-28T15:22:02;94425.34;;;2.82;64.70
6528;BME280;64597;42.664;23.256;2023-01-28T15:24:30;94409.88;;;2.74;64.73
6528;BME280;64597;42.664;23.256;2023-01-28T15:26:58;94428.50;;;2.77;64.89
6528;BME280;64597;42.664;23.256;2023-01-28T15:29:34;94434.06;;;2.74;64.96
6528;BME280;64597;42.664;23.256;2023-01-28T15:32:02;94427.66;;;2.70;64.33
6528;BME280;64597;42.664;23.256;2023-01-28T15:34:28;94434.66;;;2.70;65.02
6528;BME280;64597;42.664;23.256;2023-01-28T15:37:00;94430.84;;;2.66;64.97
6528;BME280;64597;42.664;23.256;2023-01-28T15:39:28;94434.41;;;2.65;64.51